Bloomfield Township, MI (48301)

10:53 AM EDT on August 27, 2016 (GMT -0400)
Bloomfield Village | | Change Station

Elev 797 ft 42.55 °N, 83.26 °W | Updated 6 minutes ago

Clear
Clear
78.1 °F
Feels Like 80 °F
N
3.7
Wind Variable Wind from SE

Today
High -- | Low -- °F
--% Chance of Precip.
Yesterday
High -- | Low -- °F
Precip. -- in
Pressure 30.18 in
Visibility 10.0 miles
Clouds Clear
Heat Index 80 °F
Dew Point 64 °F
Humidity 63%
Rainfall 0.00 in
Snow Depth Not available.
6:53 AM 8:14 PM
Waning Crescent, 24% visible
METAR KVLL 271434Z AUTO 12007KT 090V160 10SM CLR 26/18 A3018 RMK AO2 T02600184
Pressure 30.18 in
Visibility 10.0 miles
Clouds Clear
Heat Index 80 °F
Dew Point 64 °F
Humidity 63%
Rainfall 0.00 in
Snow Depth Not available.
6:53 AM 8:14 PM
Waning Crescent, 24% visible
METAR KVLL 271434Z AUTO 12007KT 090V160 10SM CLR 26/18 A3018 RMK AO2 T02600184

10-Day Weather Forecast

Almanac

Astronomy

Aug. 27, 2016 Rise Set
Actual Time
Civil Twilight
Nautical Twilight
Astronomical Twilight
Moon
Length of Visible Light
Length of Day
Tomorrow will be .
, % of the Moon is Illuminated

Today's Extremes

State Highs State Lows

Community

WunderPhotos

Upload Photos

1,935,344 photos uploaded!

WunderBlog® & News

Nearby

Air Quality

  Air Quality AQ Index Pollutant
Not available.

Snow Depth

Station Depth Elevation

Earthquake Activity

City Distance Mag. Time & Date
Minimum magnitude displayed is 2.5.

Coastal Water Temperatures

Place Temperature

Stations

Nearby Weather Stations

Station Location Temp. Windchill Dew Point Humidity Wind Precip. Elev Updated Type
                   

Watches & Warnings

There are currently no watches in effect.